Time;durP1;ratioP1;P1;durP2;ratioP2;P2;SDS_P1;SDS_P2;PMS_P1;PMS_P2;Temp;Humidity;BMP_temperature;BMP_pressure;BME280_temperature;BME280_humidity;BME280_pressure;Samples;Min_cycle;Max_cycle;Signal;HPM_P1;HPM_P2
2020/12/17 00:01:55;;;;;;;24.30;15.60;;;;;;;;;;4970804;28;20063;-71
2020/12/17 00:04:21;;;;;;;22.38;14.55;;;;;;;;;;4955094;28;20047;-71
2020/12/17 00:06:47;;;;;;;20.63;14.68;;;;;;;;;;4972336;28;20109;-72
2020/12/17 00:09:13;;;;;;;25.45;15.82;;;;;;;;;;4974901;28;20051;-71
2020/12/17 00:11:39;;;;;;;23.40;15.70;;;;;;;;;;4976384;28;20047;-71
2020/12/17 00:14:05;;;;;;;24.67;15.40;;;;;;;;;;4958825;28;20113;-71
2020/12/17 00:16:31;;;;;;;22.52;14.70;;;;;;;;;;4958789;28;20132;-71
2020/12/17 00:18:57;;;;;;;24.40;13.95;;;;;;;;;;4975998;28;20054;-71
2020/12/17 00:21:23;;;;;;;22.65;15.32;;;;;;;;;;4975753;28;20078;-71
2020/12/17 00:23:49;;;;;;;23.40;15.75;;;;;;;;;;4976126;28;20051;-72
2020/12/17 00:26:17;;;;;;;20.63;14.60;;;;;;;;;;4958481;28;20055;-71
2020/12/17 00:28:43;;;;;;;24.50;15.93;;;;;;;;;;4942976;28;20086;-71
2020/12/17 00:31:09;;;;;;;23.70;14.75;;;;;;;;;;4974849;28;20093;-72
2020/12/17 00:33:35;;;;;;;26.10;15.63;;;;;;;;;;4958403;28;20108;-72
2020/12/17 00:36:01;;;;;;;23.02;15.35;;;;;;;;;;4974636;28;20078;-72
2020/12/17 00:38:27;;;;;;;22.25;14.73;;;;;;;;;;4975595;28;20528;-72
2020/12/17 00:40:53;;;;;;;24.95;15.18;;;;;;;;;;4958529;28;20047;-72
2020/12/17 00:43:19;;;;;;;23.90;16.30;;;;;;;;;;4974584;28;20590;-72
2020/12/17 00:45:45;;;;;;;22.65;15.57;;;;;;;;;;4958303;28;20077;-72
2020/12/17 00:48:12;;;;;;;21.77;14.68;;;;;;;;;;4975329;28;20058;-72
2020/12/17 00:50:38;;;;;;;26.02;15.73;;;;;;;;;;4974340;28;20139;-71
2020/12/17 00:53:04;;;;;;;23.30;15.57;;;;;;;;;;4974352;28;20494;-72
2020/12/17 00:55:30;;;;;;;23.27;15.30;;;;;;;;;;4973968;28;20047;-72
2020/12/17 00:57:56;;;;;;;21.20;14.63;;;;;;;;;;4958425;28;20055;-72
2020/12/17 01:00:22;;;;;;;23.63;14.02;;;;;;;;;;4974182;28;20118;-72
2020/12/17 01:02:48;;;;;;;22.17;13.98;;;;;;;;;;4975093;28;20055;-72
2020/12/17 01:05:14;;;;;;;21.80;14.18;;;;;;;;;;4974106;28;20129;-72
2020/12/17 01:07:40;;;;;;;23.05;15.00;;;;;;;;;;4974054;28;20051;-72
2020/12/17 01:10:06;;;;;;;23.58;15.35;;;;;;;;;;4973500;28;20462;-72
2020/12/17 01:12:32;;;;;;;22.15;14.07;;;;;;;;;;4975165;28;20074;-72
2020/12/17 01:14:58;;;;;;;24.02;15.65;;;;;;;;;;4957847;28;20047;-72
2020/12/17 01:17:24;;;;;;;26.95;16.13;;;;;;;;;;4941732;28;20101;-72
2020/12/17 01:19:51;;;;;;;22.42;14.35;;;;;;;;;;4974299;28;20105;-72
2020/12/17 01:22:17;;;;;;;22.25;15.02;;;;;;;;;;4974111;28;20051;-72
2020/12/17 01:24:43;;;;;;;23.27;14.90;;;;;;;;;;4973583;28;20055;-72
2020/12/17 01:27:09;;;;;;;22.60;14.60;;;;;;;;;;4973336;28;20059;-72
2020/12/17 01:29:36;;;;;;;23.67;14.77;;;;;;;;;;4957555;28;20058;-71
2020/12/17 01:32:02;;;;;;;24.77;14.65;;;;;;;;;;4974793;28;20050;-71
2020/12/17 01:34:28;;;;;;;20.80;14.95;;;;;;;;;;4957405;28;20055;-71
2020/12/17 01:36:55;;;;;;;23.95;14.73;;;;;;;;;;4957293;28;20491;-71
2020/12/17 01:39:22;;;;;;;21.92;14.98;;;;;;;;;;4941514;28;20113;-71
2020/12/17 01:41:48;;;;;;;25.40;16.20;;;;;;;;;;4941696;28;20059;-72
2020/12/17 01:44:15;;;;;;;25.92;15.88;;;;;;;;;;4957537;28;20614;-72
2020/12/17 01:46:41;;;;;;;25.48;15.48;;;;;;;;;;4973078;28;20050;-72
2020/12/17 01:49:07;;;;;;;20.80;14.93;;;;;;;;;;4974542;28;20110;-72
2020/12/17 01:51:33;;;;;;;25.02;16.27;;;;;;;;;;4974342;28;20549;-72
2020/12/17 01:53:59;;;;;;;23.67;16.08;;;;;;;;;;4973120;28;20469;-72
2020/12/17 01:56:27;;;;;;;29.25;16.02;;;;;;;;;;4973022;28;20108;-72
2020/12/17 01:58:56;;;;;;;23.55;15.15;;;;;;;;;;4951873;29;20463;-72
2020/12/17 02:01:24;;;;;;;27.65;16.88;;;;;;;;;;4963690;28;20051;-72
2020/12/17 02:03:50;;;;;;;26.75;15.73;;;;;;;;;;4972920;28;20109;-71
2020/12/17 02:06:16;;;;;;;25.45;15.73;;;;;;;;;;4972796;28;20097;-71
2020/12/17 02:08:42;;;;;;;26.30;15.23;;;;;;;;;;4972866;28;20090;-72
2020/12/17 02:11:09;;;;;;;21.73;15.18;;;;;;;;;;4973857;28;20051;-72
2020/12/17 02:13:36;;;;;;;24.85;14.88;;;;;;;;;;4956979;28;20129;-72
2020/12/17 02:16:04;;;;;;;21.90;14.80;;;;;;;;;;4956752;28;20097;-72
2020/12/17 02:18:30;;;;;;;22.33;15.15;;;;;;;;;;4956818;28;20058;-72
2020/12/17 02:20:57;;;;;;;23.40;14.95;;;;;;;;;;4974076;28;20055;-72
2020/12/17 02:23:23;;;;;;;21.85;15.30;;;;;;;;;;4972544;28;20102;-72
2020/12/17 02:25:50;;;;;;;27.73;16.13;;;;;;;;;;4940540;28;20058;-72
2020/12/17 02:28:16;;;;;;;24.83;15.57;;;;;;;;;;4956584;28;20524;-72
2020/12/17 02:30:43;;;;;;;23.98;15.27;;;;;;;;;;4955270;28;20403;-71
2020/12/17 02:33:10;;;;;;;23.88;14.70;;;;;;;;;;4956530;28;20462;-72
2020/12/17 02:35:36;;;;;;;19.67;14.23;;;;;;;;;;4972046;28;20055;-71
2020/12/17 02:38:03;;;;;;;25.85;15.50;;;;;;;;;;4972121;28;20509;-71
2020/12/17 02:40:29;;;;;;;28.13;16.92;;;;;;;;;;4940658;28;20054;-71
2020/12/17 02:42:55;;;;;;;22.85;15.18;;;;;;;;;;4972367;28;20054;-72
2020/12/17 02:45:21;;;;;;;24.55;15.52;;;;;;;;;;4972189;28;20097;-71
2020/12/17 02:47:47;;;;;;;21.55;15.00;;;;;;;;;;4972046;28;20144;-71
2020/12/17 02:50:14;;;;;;;26.73;15.55;;;;;;;;;;4973158;28;20055;-72
2020/12/17 02:52:41;;;;;;;23.52;16.02;;;;;;;;;;4955514;28;20059;-72
2020/12/17 02:55:08;;;;;;;22.98;15.55;;;;;;;;;;4956323;28;20058;-72
2020/12/17 02:57:34;;;;;;;24.45;15.63;;;;;;;;;;4956018;28;20059;-71
2020/12/17 03:00:08;;;;;;;22.00;15.02;;;;;;;;;;4971918;28;20581;-71
2020/12/17 03:02:34;;;;;;;26.35;15.48;;;;;;;;;;4973152;28;20474;-72
2020/12/17 03:05:00;;;;;;;25.60;16.35;;;;;;;;;;4971990;28;20498;-71
2020/12/17 03:07:26;;;;;;;24.60;16.23;;;;;;;;;;4971408;28;20055;-71
2020/12/17 03:09:52;;;;;;;27.40;17.98;;;;;;;;;;4972806;28;20121;-72
2020/12/17 03:12:19;;;;;;;25.10;15.32;;;;;;;;;;4972043;28;20477;-71
2020/12/17 03:14:45;;;;;;;26.73;16.48;;;;;;;;;;4971432;28;20051;-72
2020/12/17 03:17:11;;;;;;;25.70;16.90;;;;;;;;;;4972703;28;20050;-72
2020/12/17 03:19:37;;;;;;;27.30;17.02;;;;;;;;;;4955544;28;20050;-72
2020/12/17 03:22:03;;;;;;;29.13;17.75;;;;;;;;;;4972906;28;20047;-71
2020/12/17 03:24:29;;;;;;;28.23;17.27;;;;;;;;;;4971544;28;20050;-71
2020/12/17 03:26:55;;;;;;;27.40;16.65;;;;;;;;;;4972661;28;20134;-71
2020/12/17 03:29:21;;;;;;;23.30;15.27;;;;;;;;;;4955560;28;20109;-72
2020/12/17 03:31:47;;;;;;;28.58;16.08;;;;;;;;;;4950077;29;20043;-72
2020/12/17 03:34:14;;;;;;;28.75;17.08;;;;;;;;;;4953294;28;20051;-72
2020/12/17 03:36:40;;;;;;;28.30;17.77;;;;;;;;;;4952117;29;20506;-72
2020/12/17 03:39:06;;;;;;;27.88;17.63;;;;;;;;;;4953066;29;20058;-72
2020/12/17 03:41:32;;;;;;;26.95;15.80;;;;;;;;;;4954541;28;20077;-71
2020/12/17 03:43:58;;;;;;;28.52;17.17;;;;;;;;;;4971393;28;20106;-72
2020/12/17 03:46:24;;;;;;;26.48;16.92;;;;;;;;;;4970932;28;20054;-72
2020/12/17 03:48:50;;;;;;;28.45;16.30;;;;;;;;;;4955471;28;20109;-72
2020/12/17 03:51:17;;;;;;;26.88;17.00;;;;;;;;;;4972720;28;20058;-72
2020/12/17 03:53:43;;;;;;;25.27;16.27;;;;;;;;;;4971386;28;20097;-72
2020/12/17 03:56:09;;;;;;;22.25;15.70;;;;;;;;;;4970621;28;20502;-72
2020/12/17 03:58:35;;;;;;;23.27;15.82;;;;;;;;;;4970952;28;20050;-72
2020/12/17 04:01:01;;;;;;;23.15;15.27;;;;;;;;;;4972272;28;20085;-73
2020/12/17 04:03:27;;;;;;;27.00;16.65;;;;;;;;;;4972270;28;20054;-72
2020/12/17 04:05:53;;;;;;;28.10;16.52;;;;;;;;;;4971123;28;20074;-72
2020/12/17 04:08:19;;;;;;;26.60;16.08;;;;;;;;;;4972417;28;20055;-72
2020/12/17 04:10:45;;;;;;;23.98;15.65;;;;;;;;;;4972026;28;20062;-72
2020/12/17 04:13:11;;;;;;;25.23;14.68;;;;;;;;;;4971287;28;20097;-72
2020/12/17 04:15:37;;;;;;;24.77;15.10;;;;;;;;;;4970704;28;20094;-72
2020/12/17 04:18:03;;;;;;;23.08;15.15;;;;;;;;;;4972318;28;20491;-72
2020/12/17 04:20:29;;;;;;;23.42;15.50;;;;;;;;;;4951626;29;20125;-72
2020/12/17 04:22:55;;;;;;;24.08;15.43;;;;;;;;;;4953066;28;20140;-72
2020/12/17 04:25:21;;;;;;;28.30;16.88;;;;;;;;;;4971034;28;20043;-72
2020/12/17 04:27:47;;;;;;;27.33;16.58;;;;;;;;;;4971938;28;20088;-72
2020/12/17 04:30:15;;;;;;;22.83;15.38;;;;;;;;;;4971175;28;20089;-72
2020/12/17 04:32:41;;;;;;;25.13;16.92;;;;;;;;;;4970719;28;20494;-72
2020/12/17 04:35:07;;;;;;;21.98;15.38;;;;;;;;;;4970524;28;20105;-72
2020/12/17 04:37:33;;;;;;;26.83;15.43;;;;;;;;;;4971945;28;20054;-72
2020/12/17 04:40:00;;;;;;;22.70;15.50;;;;;;;;;;4970620;28;20053;-73
2020/12/17 04:42:27;;;;;;;23.88;16.60;;;;;;;;;;4970923;28;20205;-73
2020/12/17 04:44:53;;;;;;;25.25;16.15;;;;;;;;;;4954835;28;20082;-73
2020/12/17 04:47:20;;;;;;;25.80;15.20;;;;;;;;;;4954779;28;20457;-72
2020/12/17 04:49:50;;;;;;;22.20;14.35;;;;;;;;;;4954702;28;20073;-73
2020/12/17 04:52:20;;;;;;;25.75;15.50;;;;;;;;;;4972072;28;20509;-73
2020/12/17 04:54:46;;;;;;;21.70;14.30;;;;;;;;;;4957875;28;20473;-73
2020/12/17 04:57:15;;;;;;;25.30;16.02;;;;;;;;;;4958331;28;20051;-73
2020/12/17 04:59:45;;;;;;;25.42;14.75;;;;;;;;;;4958056;28;20494;-72
2020/12/17 05:02:14;;;;;;;24.38;14.93;;;;;;;;;;4959087;28;20058;-73
2020/12/17 05:04:42;;;;;;;22.92;14.68;;;;;;;;;;4958258;28;20109;-73
2020/12/17 05:07:10;;;;;;;22.45;13.98;;;;;;;;;;4958261;28;20055;-73
2020/12/17 05:09:37;;;;;;;21.63;13.45;;;;;;;;;;4942240;28;20133;-73
2020/12/17 05:12:03;;;;;;;25.85;14.02;;;;;;;;;;4974113;28;20525;-73
2020/12/17 05:14:29;;;;;;;23.75;14.88;;;;;;;;;;4958061;28;20506;-73
2020/12/17 05:16:56;;;;;;;22.10;14.15;;;;;;;;;;4957927;28;20050;-72
2020/12/17 05:19:26;;;;;;;19.60;13.60;;;;;;;;;;4957966;28;20462;-73
2020/12/17 05:21:55;;;;;;;19.02;13.18;;;;;;;;;;4973692;28;20113;-73
2020/12/17 05:24:22;;;;;;;20.92;13.50;;;;;;;;;;4973902;28;20086;-73
2020/12/17 05:26:49;;;;;;;23.98;13.77;;;;;;;;;;4957381;28;20089;-72
2020/12/17 05:29:16;;;;;;;20.75;13.55;;;;;;;;;;4942110;28;20057;-73
2020/12/17 05:31:42;;;;;;;20.45;13.25;;;;;;;;;;4957614;28;20137;-73
2020/12/17 05:34:08;;;;;;;17.52;12.95;;;;;;;;;;4957376;28;20090;-73
2020/12/17 05:36:34;;;;;;;19.48;13.35;;;;;;;;;;4973669;28;20118;-73
2020/12/17 05:39:20;;;;;;;19.20;12.93;;;;;;;;;;4957327;28;20054;-73
2020/12/17 05:41:48;;;;;;;19.48;12.48;;;;;;;;;;4974558;28;20481;-73
2020/12/17 05:44:17;;;;;;;20.70;13.68;;;;;;;;;;4973601;28;20125;-72
2020/12/17 05:46:45;;;;;;;19.83;12.48;;;;;;;;;;4974369;28;20075;-73
2020/12/17 05:49:24;;;;;;;19.23;12.65;;;;;;;;;;4973201;28;20062;-73
2020/12/17 05:52:17;;;;;;;21.95;13.25;;;;;;;;;;4974694;28;20082;-72
2020/12/17 05:55:02;;;;;;;20.90;12.98;;;;;;;;;;4973336;28;20478;-73
2020/12/17 05:57:28;;;;;;;19.80;13.45;;;;;;;;;;4957464;28;20059;-73
2020/12/17 05:59:58;;;;;;;21.02;12.35;;;;;;;;;;4957012;28;20086;-73
2020/12/17 06:02:26;;;;;;;21.08;13.95;;;;;;;;;;4946234;28;20050;-73
2020/12/17 06:05:11;;;;;;;22.13;13.40;;;;;;;;;;4942478;28;20187;-74
2020/12/17 06:07:40;;;;;;;21.17;13.93;;;;;;;;;;4958851;28;20050;-73
2020/12/17 06:10:23;;;;;;;19.35;12.68;;;;;;;;;;4974980;28;20142;-73
2020/12/17 06:12:50;;;;;;;19.52;13.38;;;;;;;;;;4958136;28;20090;-73
2020/12/17 06:15:21;;;;;;;19.13;12.85;;;;;;;;;;4957502;28;20134;-73
2020/12/17 06:18:00;;;;;;;20.42;11.88;;;;;;;;;;4958138;28;20489;-73
2020/12/17 06:20:32;;;;;;;18.05;12.60;;;;;;;;;;4973433;28;20058;-73
2020/12/17 06:22:59;;;;;;;14.63;10.98;;;;;;;;;;4957619;28;20426;-73
2020/12/17 06:25:27;;;;;;;16.60;11.27;;;;;;;;;;4956712;28;20051;-73
2020/12/17 06:27:53;;;;;;;19.85;11.68;;;;;;;;;;4972806;28;20143;-73
2020/12/17 06:30:22;;;;;;;17.75;11.68;;;;;;;;;;4956532;28;20055;-73
2020/12/17 06:32:49;;;;;;;20.08;12.15;;;;;;;;;;4972318;28;20055;-73
2020/12/17 06:35:21;;;;;;;20.25;12.80;;;;;;;;;;4956435;28;20056;-74
2020/12/17 06:37:49;;;;;;;18.85;12.15;;;;;;;;;;4971264;28;20153;-71
2020/12/17 06:40:34;;;;;;;22.65;13.07;;;;;;;;;;4954867;28;20490;-71
2020/12/17 06:43:00;;;;;;;19.40;11.82;;;;;;;;;;4954144;28;20054;-71
2020/12/17 06:45:30;;;;;;;18.67;11.88;;;;;;;;;;4970939;28;20105;-71
2020/12/17 06:47:57;;;;;;;16.92;12.23;;;;;;;;;;4970241;28;20050;-71
2020/12/17 06:50:30;;;;;;;16.70;10.77;;;;;;;;;;4953417;28;20073;-71
2020/12/17 06:53:12;;;;;;;13.90;10.50;;;;;;;;;;4954367;28;20117;-71
2020/12/17 06:55:46;;;;;;;14.93;10.45;;;;;;;;;;4970919;28;20102;-71
2020/12/17 06:58:20;;;;;;;15.23;10.02;;;;;;;;;;4954987;28;20113;-71
2020/12/17 07:00:47;;;;;;;14.95;9.18;;;;;;;;;;4953659;28;20086;-71
2020/12/17 07:03:46;;;;;;;13.30;9.70;;;;;;;;;;4953841;28;20046;-71
2020/12/17 07:06:23;;;;;;;13.77;10.30;;;;;;;;;;4970063;28;20047;-71
2020/12/17 07:08:51;;;;;;;15.30;9.60;;;;;;;;;;4969594;28;20055;-71
2020/12/17 07:11:43;;;;;;;14.30;9.40;;;;;;;;;;4954026;28;20102;-71
2020/12/17 07:14:31;;;;;;;13.32;9.18;;;;;;;;;;4970341;28;20105;-71
2020/12/17 07:16:58;;;;;;;13.60;9.10;;;;;;;;;;4962504;28;20089;-71
2020/12/17 07:19:26;;;;;;;15.98;9.05;;;;;;;;;;4969394;28;20105;-71
2020/12/17 07:22:01;;;;;;;9.43;8.32;;;;;;;;;;4953819;28;20477;-72
2020/12/17 07:24:31;;;;;;;12.63;8.88;;;;;;;;;;4969590;28;20051;-71
2020/12/17 07:27:02;;;;;;;10.80;8.25;;;;;;;;;;4969223;28;20101;-71
2020/12/17 07:29:37;;;;;;;10.30;7.55;;;;;;;;;;4953581;28;20098;-72
2020/12/17 07:32:35;;;;;;;12.55;8.18;;;;;;;;;;4969559;28;20136;-71
2020/12/17 07:35:15;;;;;;;12.40;8.13;;;;;;;;;;4969615;28;20086;-71
2020/12/17 07:37:57;;;;;;;11.20;8.40;;;;;;;;;;4953510;28;20100;-71
2020/12/17 07:40:34;;;;;;;12.45;8.13;;;;;;;;;;4953337;28;20050;-73
2020/12/17 07:43:00;;;;;;;13.30;8.93;;;;;;;;;;4953430;28;20152;-70
2020/12/17 07:45:47;;;;;;;13.65;8.75;;;;;;;;;;4970366;28;20106;-70
2020/12/17 07:48:41;;;;;;;12.43;8.43;;;;;;;;;;4953965;28;20124;-70
2020/12/17 07:51:08;;;;;;;;;;;;;;;;;;4971046;28;20059;-70
2020/12/17 07:53:35;;;;;;;10.50;8.05;;;;;;;;;;4970428;28;19961;-71
2020/12/17 07:56:01;;;;;;;13.25;7.85;;;;;;;;;;4952623;28;20102;-70
2020/12/17 07:58:28;;;;;;;11.15;7.90;;;;;;;;;;4968801;28;20442;-71
2020/12/17 08:00:56;;;;;;;11.95;7.80;;;;;;;;;;4953135;28;20050;-70
2020/12/17 08:03:22;;;;;;;10.52;7.50;;;;;;;;;;4970427;28;20051;-70
2020/12/17 08:05:49;;;;;;;13.40;8.38;;;;;;;;;;4953009;28;20051;-70
2020/12/17 08:08:16;;;;;;;12.15;7.38;;;;;;;;;;4952797;28;20533;-70
2020/12/17 08:10:44;;;;;;;10.75;7.80;;;;;;;;;;4953008;28;20165;-70
2020/12/17 08:13:11;;;;;;;7.90;6.88;;;;;;;;;;4953236;28;20054;-70
2020/12/17 08:15:37;;;;;;;7.72;6.55;;;;;;;;;;4968441;28;20055;-70
2020/12/17 08:18:04;;;;;;;6.47;5.03;;;;;;;;;;4957478;28;20050;-71
2020/12/17 08:20:31;;;;;;;7.75;5.82;;;;;;;;;;4944979;28;20082;-71
2020/12/17 08:22:57;;;;;;;8.20;5.85;;;;;;;;;;4943689;28;20051;-73
2020/12/17 08:25:23;;;;;;;9.20;5.55;;;;;;;;;;4962819;28;20141;-74
2020/12/17 08:28:35;;;;;;;7.75;5.43;;;;;;;;;;4947417;28;20081;-73
2020/12/17 08:31:16;;;;;;;6.68;4.75;;;;;;;;;;4969802;28;20051;-74
2020/12/17 08:34:15;;;;;;;5.93;4.70;;;;;;;;;;4963732;28;20055;-73
2020/12/17 08:36:42;;;;;;;6.45;4.70;;;;;;;;;;4893175;29;20052;-72
2020/12/17 08:39:18;;;;;;;6.83;5.03;;;;;;;;;;4886140;29;20160;-79
2020/12/17 08:41:59;;;;;;;7.10;4.70;;;;;;;;;;4914437;29;20063;-75
2020/12/17 08:44:55;;;;;;;7.30;4.80;;;;;;;;;;4897088;29;20052;-74
2020/12/17 08:47:50;;;;;;;5.80;4.88;;;;;;;;;;4901554;29;20100;-73
2020/12/17 08:50:17;;;;;;;5.40;4.63;;;;;;;;;;4898064;29;20507;-74
2020/12/17 08:52:44;;;;;;;6.13;4.32;;;;;;;;;;4893038;28;20105;-74
2020/12/17 08:55:10;;;;;;;7.15;4.88;;;;;;;;;;4962711;28;20047;-73
2020/12/17 08:57:37;;;;;;;7.05;4.32;;;;;;;;;;4963141;28;20199;-72
2020/12/17 09:00:15;;;;;;;5.35;4.53;;;;;;;;;;4958927;28;20122;-73
2020/12/17 09:02:41;;;;;;;4.93;3.88;;;;;;;;;;4959309;28;20055;-72
2020/12/17 09:05:10;;;;;;;6.00;3.75;;;;;;;;;;4970126;28;20051;-73
2020/12/17 09:07:40;;;;;;;10.00;3.80;;;;;;;;;;4953360;28;20100;-72
2020/12/17 09:10:07;;;;;;;5.93;3.50;;;;;;;;;;4971145;28;20062;-72
2020/12/17 09:12:35;;;;;;;5.18;4.15;;;;;;;;;;4975438;28;20105;-72
2020/12/17 09:15:11;;;;;;;4.88;4.13;;;;;;;;;;4956574;28;20121;-73
2020/12/17 09:17:38;;;;;;;6.53;4.40;;;;;;;;;;4972317;28;20129;-73
2020/12/17 09:20:20;;;;;;;4.40;3.90;;;;;;;;;;4958305;28;20494;-73
2020/12/17 09:22:46;;;;;;;5.93;4.40;;;;;;;;;;4958199;28;20114;-73
2020/12/17 09:25:13;;;;;;;5.20;4.03;;;;;;;;;;4958039;28;20046;-73
2020/12/17 09:27:40;;;;;;;7.07;4.03;;;;;;;;;;4973936;28;20494;-73
2020/12/17 09:30:10;;;;;;;4.88;3.90;;;;;;;;;;4958087;28;20051;-73
2020/12/17 09:32:40;;;;;;;5.07;4.30;;;;;;;;;;4973792;28;20051;-73
2020/12/17 09:35:11;;;;;;;4.90;3.75;;;;;;;;;;4974884;28;20051;-73
2020/12/17 09:37:38;;;;;;;5.95;4.25;;;;;;;;;;4958117;28;20387;-73
2020/12/17 09:40:07;;;;;;;6.88;4.03;;;;;;;;;;4974393;28;20502;-73
2020/12/17 09:42:34;;;;;;;5.72;4.30;;;;;;;;;;4974782;28;20105;-72
2020/12/17 09:45:16;;;;;;;5.63;4.22;;;;;;;;;;4973511;28;20082;-72
2020/12/17 09:47:43;;;;;;;7.95;4.30;;;;;;;;;;4957543;28;20055;-73
2020/12/17 09:50:16;;;;;;;6.65;4.20;;;;;;;;;;4957661;28;20518;-73
2020/12/17 09:52:43;;;;;;;5.97;4.13;;;;;;;;;;4958044;28;20105;-72
2020/12/17 09:55:13;;;;;;;7.63;4.00;;;;;;;;;;4973635;28;20490;-73
2020/12/17 09:57:44;;;;;;;6.00;4.05;;;;;;;;;;4953951;29;20052;-73
2020/12/17 10:00:14;;;;;;;5.82;4.05;;;;;;;;;;4954356;29;20051;-73
2020/12/17 10:02:41;;;;;;;5.03;4.28;;;;;;;;;;4922070;29;20106;-72
2020/12/17 10:05:08;;;;;;;5.53;4.18;;;;;;;;;;4938042;29;20051;-72
2020/12/17 10:07:34;;;;;;;5.78;4.07;;;;;;;;;;4953593;29;20102;-72
2020/12/17 10:10:00;;;;;;;6.30;4.43;;;;;;;;;;4954125;28;20110;-72
2020/12/17 10:12:39;;;;;;;5.35;4.18;;;;;;;;;;4939653;29;20047;-72
2020/12/17 10:15:05;;;;;;;5.53;3.90;;;;;;;;;;4953681;28;20107;-72
2020/12/17 10:17:31;;;;;;;4.85;3.85;;;;;;;;;;4971039;28;20109;-73
2020/12/17 10:19:57;;;;;;;6.43;4.03;;;;;;;;;;4972779;28;20101;-73
2020/12/17 10:23:20;;;;;;;;;;;;;;;;;;;;;
2020/12/17 10:26:05;;;;;;;5.40;3.63;;;;;;;;;;4964369;28;20049;-74
2020/12/17 10:29:20;;;;;;;6.55;4.70;;;;;;;;;;4929286;28;20050;-76
2020/12/17 10:32:14;;;;;;;5.30;4.15;;;;;;;;;;4946436;28;20608;-74
2020/12/17 10:35:31;;;;;;;4.45;3.80;;;;;;;;;;4852022;29;20061;-74
2020/12/17 10:38:04;;;;;;;8.05;5.13;;;;;;;;;;4825690;29;20061;-74
2020/12/17 10:40:52;;;;;;;6.15;3.90;;;;;;;;;;4827358;29;20450;-75
2020/12/17 10:47:35;;;;;;;5.07;3.97;;;;;;;;;;4884807;29;20053;-74
2020/12/17 10:50:06;;;;;;;6.80;4.00;;;;;;;;;;4927105;28;20138;-75
2020/12/17 10:52:33;;;;;;;4.63;4.13;;;;;;;;;;4909406;29;20103;-73
2020/12/17 10:54:59;;;;;;;4.93;3.55;;;;;;;;;;4939338;29;20051;-72
2020/12/17 10:57:25;;;;;;;4.88;3.92;;;;;;;;;;4891964;29;20043;-74
2020/12/17 10:59:57;;;;;;;5.65;4.47;;;;;;;;;;4922766;29;20069;-73
2020/12/17 11:06:23;;;;;;;5.07;3.83;;;;;;;;;;4942821;28;20541;-75
2020/12/17 11:09:27;;;;;;;6.22;3.58;;;;;;;;;;4952637;28;20055;-77
2020/12/17 11:16:17;;;;;;;4.85;3.58;;;;;;;;;;4964126;28;20085;-74
2020/12/17 11:18:44;;;;;;;4.03;3.45;;;;;;;;;;4958730;28;20070;-72
2020/12/17 11:21:53;;;;;;;5.22;3.70;;;;;;;;;;4962313;28;20047;-75
2020/12/17 11:24:20;;;;;;;4.85;4.18;;;;;;;;;;4960743;28;20073;-73
2020/12/17 11:27:49;;;;;;;;;;;;;;;;;;;;;
2020/12/17 11:31:02;;;;;;;6.30;4.50;;;;;;;;;;4964411;28;20065;-73
2020/12/17 11:33:29;;;;;;;4.97;4.10;;;;;;;;;;4959721;28;20055;-72
2020/12/17 11:35:55;;;;;;;6.47;4.45;;;;;;;;;;4935325;28;20605;-71
2020/12/17 11:38:22;;;;;;;8.43;5.30;;;;;;;;;;4942744;28;20050;-71
2020/12/17 11:40:49;;;;;;;8.75;5.00;;;;;;;;;;4942831;28;20101;-74
2020/12/17 11:43:31;;;;;;;8.05;4.80;;;;;;;;;;4954783;28;20510;-72
2020/12/17 11:45:57;;;;;;;9.27;5.10;;;;;;;;;;4943137;28;20047;-74
2020/12/17 11:48:23;;;;;;;9.50;4.90;;;;;;;;;;4959301;28;20095;-73
2020/12/17 11:50:49;;;;;;;9.93;4.72;;;;;;;;;;4945486;28;20059;-75
2020/12/17 11:53:15;;;;;;;6.63;4.43;;;;;;;;;;4962803;28;20054;-74
2020/12/17 11:55:41;;;;;;;8.40;4.80;;;;;;;;;;4950540;28;20047;-73
2020/12/17 11:58:07;;;;;;;7.57;5.18;;;;;;;;;;4955652;28;20047;-74
2020/12/17 12:00:33;;;;;;;6.65;5.28;;;;;;;;;;4956468;28;20055;-73
2020/12/17 12:02:59;;;;;;;6.75;4.55;;;;;;;;;;4960799;28;20102;-73
2020/12/17 12:05:25;;;;;;;5.82;4.78;;;;;;;;;;4964500;28;20617;-73
2020/12/17 12:07:52;;;;;;;9.25;5.43;;;;;;;;;;4964773;28;20113;-74
2020/12/17 12:10:18;;;;;;;13.68;6.03;;;;;;;;;;4973816;28;20498;-74
2020/12/17 12:12:44;;;;;;;7.95;5.70;;;;;;;;;;4971331;28;20043;-73
2020/12/17 12:15:10;;;;;;;6.68;5.05;;;;;;;;;;4971830;28;20054;-75
2020/12/17 12:17:36;;;;;;;10.20;5.95;;;;;;;;;;4975368;28;20054;-75
2020/12/17 12:20:03;;;;;;;8.27;5.38;;;;;;;;;;4959095;28;20391;-75
2020/12/17 12:22:29;;;;;;;7.20;4.60;;;;;;;;;;4959203;28;20055;-74
2020/12/17 12:24:55;;;;;;;10.07;5.28;;;;;;;;;;4975164;28;20075;-74
2020/12/17 12:30:33;;;;;;;7.95;5.10;;;;;;;;;;4952286;28;20051;-78
2020/12/17 12:32:59;;;;;;;8.00;5.15;;;;;;;;;;4937446;29;20475;-79
2020/12/17 12:35:25;;;;;;;7.80;5.43;;;;;;;;;;4940187;29;20051;-79
2020/12/17 12:37:52;;;;;;;12.00;5.60;;;;;;;;;;4932999;29;20060;-78
2020/12/17 12:40:18;;;;;;;6.75;5.05;;;;;;;;;;4932985;29;20143;-79
2020/12/17 12:42:44;;;;;;;7.07;4.93;;;;;;;;;;4924906;29;20068;-81
2020/12/17 12:45:11;;;;;;;10.73;5.40;;;;;;;;;;4943183;29;20055;-81
2020/12/17 12:47:37;;;;;;;5.85;4.53;;;;;;;;;;4929684;29;20055;-82
2020/12/17 12:50:04;;;;;;;6.78;4.82;;;;;;;;;;4932724;29;20476;-81
2020/12/17 12:52:30;;;;;;;6.13;4.60;;;;;;;;;;4931664;29;20122;-81
2020/12/17 12:54:57;;;;;;;6.28;4.55;;;;;;;;;;4925623;29;20504;-81
2020/12/17 12:57:23;;;;;;;5.93;4.60;;;;;;;;;;4929307;29;20048;-81
2020/12/17 12:59:49;;;;;;;7.20;4.95;;;;;;;;;;4941977;29;20521;-82
2020/12/17 13:02:16;;;;;;;7.07;4.68;;;;;;;;;;4938705;29;20059;-81
2020/12/17 13:04:43;;;;;;;5.63;4.47;;;;;;;;;;4915832;29;20501;-82
2020/12/17 13:07:10;;;;;;;6.53;5.13;;;;;;;;;;4918708;29;20051;-81
2020/12/17 13:09:36;;;;;;;6.60;4.40;;;;;;;;;;4915904;29;20059;-81
2020/12/17 13:12:03;;;;;;;5.75;4.45;;;;;;;;;;4931287;29;20062;-81
2020/12/17 13:14:29;;;;;;;5.07;4.10;;;;;;;;;;4916602;29;20521;-81
2020/12/17 13:16:55;;;;;;;6.25;4.15;;;;;;;;;;4940149;29;20070;-81
2020/12/17 13:19:21;;;;;;;8.95;4.70;;;;;;;;;;4930025;29;20048;-81
2020/12/17 13:21:48;;;;;;;7.07;4.68;;;;;;;;;;4929548;29;20058;-80
2020/12/17 13:24:14;;;;;;;7.25;4.38;;;;;;;;;;4923942;29;20062;-80
2020/12/17 13:26:40;;;;;;;7.63;5.20;;;;;;;;;;4933262;29;20039;-81
2020/12/17 13:29:08;;;;;;;7.18;4.53;;;;;;;;;;4916347;29;20079;-81
2020/12/17 13:31:36;;;;;;;6.72;4.10;;;;;;;;;;4946604;29;20097;-81
2020/12/17 13:34:02;;;;;;;6.22;4.32;;;;;;;;;;4920498;29;20063;-81
2020/12/17 13:36:28;;;;;;;6.80;4.13;;;;;;;;;;4934366;29;20059;-81
2020/12/17 13:38:54;;;;;;;7.35;5.32;;;;;;;;;;4930387;29;20420;-82
2020/12/17 13:41:21;;;;;;;5.97;4.65;;;;;;;;;;4933256;29;20051;-80
2020/12/17 13:43:47;;;;;;;6.85;4.20;;;;;;;;;;4917903;29;20055;-80
2020/12/17 13:46:13;;;;;;;6.57;4.78;;;;;;;;;;4918340;29;20056;-81
2020/12/17 13:48:39;;;;;;;7.10;4.95;;;;;;;;;;4917690;29;20931;-81
2020/12/17 13:51:06;;;;;;;6.78;5.25;;;;;;;;;;4917789;29;20062;-81
2020/12/17 13:53:33;;;;;;;8.23;5.35;;;;;;;;;;4935212;29;20055;-81
2020/12/17 13:55:59;;;;;;;8.35;5.07;;;;;;;;;;4916335;29;20048;-82
2020/12/17 13:58:25;;;;;;;9.27;4.75;;;;;;;;;;4934574;29;20047;-76
2020/12/17 14:00:52;;;;;;;7.13;4.82;;;;;;;;;;4944970;29;20056;-78
2020/12/17 14:03:18;;;;;;;6.45;4.60;;;;;;;;;;4943593;29;20062;-79
2020/12/17 14:05:44;;;;;;;7.85;5.28;;;;;;;;;;4926325;29;20063;-79
2020/12/17 14:08:11;;;;;;;6.40;4.35;;;;;;;;;;4915405;29;20063;-81
2020/12/17 14:10:37;;;;;;;7.97;4.68;;;;;;;;;;4932318;29;20066;-81
2020/12/17 14:13:03;;;;;;;7.05;4.72;;;;;;;;;;4928519;29;20540;-75
2020/12/17 14:15:29;;;;;;;9.43;5.10;;;;;;;;;;4911074;29;20048;-76
2020/12/17 14:17:55;;;;;;;9.48;6.43;;;;;;;;;;4944068;29;20610;-75
2020/12/17 14:20:22;;;;;;;6.70;5.05;;;;;;;;;;4928366;29;20056;-79
2020/12/17 14:22:48;;;;;;;6.80;4.70;;;;;;;;;;4916687;28;20078;-79
2020/12/17 14:25:14;;;;;;;9.57;5.10;;;;;;;;;;4933408;29;20083;-81
2020/12/17 14:27:41;;;;;;;8.60;4.70;;;;;;;;;;4951337;29;20040;-78
2020/12/17 14:30:08;;;;;;;9.20;5.75;;;;;;;;;;4935857;29;20048;-79
2020/12/17 14:32:35;;;;;;;6.88;5.45;;;;;;;;;;4935853;29;20073;-82
2020/12/17 14:35:02;;;;;;;6.10;5.00;;;;;;;;;;4942001;29;20051;-84
2020/12/17 14:37:28;;;;;;;6.78;5.15;;;;;;;;;;4942434;29;20058;-83
2020/12/17 14:39:54;;;;;;;5.28;4.32;;;;;;;;;;4919058;29;20051;-83
2020/12/17 14:42:21;;;;;;;7.00;4.60;;;;;;;;;;4949636;29;20099;-82
2020/12/17 14:44:47;;;;;;;7.43;5.07;;;;;;;;;;4914494;29;20375;-83
2020/12/17 14:47:17;;;;;;;10.50;5.55;;;;;;;;;;4928519;28;20273;-83
2020/12/17 14:49:44;;;;;;;8.93;4.75;;;;;;;;;;4930884;29;20601;-83
2020/12/17 14:52:10;;;;;;;5.60;4.72;;;;;;;;;;4938194;29;20434;-82
2020/12/17 14:54:37;;;;;;;7.10;5.03;;;;;;;;;;4923931;29;20065;-82
2020/12/17 14:57:06;;;;;;;7.22;4.53;;;;;;;;;;4937503;29;20057;-82
2020/12/17 14:59:33;;;;;;;6.13;5.15;;;;;;;;;;4944011;29;20059;-83
2020/12/17 15:01:59;;;;;;;12.80;4.22;;;;;;;;;;4937319;29;20051;-83